createdAt,value
2018-09-30T00:00:15.500Z,92.80
2018-09-30T00:02:44.342Z,92.90
2018-09-30T00:05:13.190Z,93.10
2018-09-30T00:07:42.348Z,93.00
2018-09-30T00:10:11.288Z,93.00
2018-09-30T00:12:40.247Z,93.00
2018-09-30T00:15:09.226Z,93.10
2018-09-30T00:17:38.123Z,93.20
2018-09-30T00:20:07.122Z,93.20
2018-09-30T00:22:36.139Z,93.20
2018-09-30T00:25:10.335Z,93.30
2018-09-30T00:27:39.356Z,93.50
2018-09-30T00:30:08.373Z,93.50
2018-09-30T00:32:37.425Z,93.40
2018-09-30T00:35:06.371Z,93.40
2018-09-30T00:37:35.272Z,93.40
2018-09-30T00:40:04.248Z,93.30
2018-09-30T00:42:33.228Z,93.40
2018-09-30T00:45:02.257Z,93.40
2018-09-30T00:47:31.237Z,93.40
2018-09-30T00:50:00.204Z,93.40
2018-09-30T00:52:29.122Z,93.60
2018-09-30T00:54:58.063Z,93.60
2018-09-30T00:57:26.992Z,93.60
2018-09-30T00:59:55.977Z,93.70
2018-09-30T01:02:25.002Z,93.80
2018-09-30T01:04:53.947Z,93.80
2018-09-30T01:07:22.888Z,93.80
2018-09-30T01:09:51.806Z,93.80
2018-09-30T01:12:20.818Z,93.80
2018-09-30T01:14:49.703Z,93.90
2018-09-30T01:17:18.716Z,94.00
2018-09-30T01:19:47.583Z,93.90
2018-09-30T01:22:16.566Z,93.90
2018-09-30T01:24:45.471Z,94.10
2018-09-30T01:27:14.473Z,94.10
2018-09-30T01:29:43.399Z,94.10
2018-09-30T01:32:12.436Z,94.20
2018-09-30T01:34:41.384Z,94.20
2018-09-30T01:37:10.338Z,94.30
2018-09-30T01:39:39.261Z,94.40
2018-09-30T01:42:08.326Z,94.70
2018-09-30T01:44:37.221Z,94.40
2018-09-30T01:47:06.273Z,94.50
2018-09-30T01:49:35.202Z,94.50
2018-09-30T01:52:15.093Z,94.50
2018-09-30T01:54:44.022Z,94.50
2018-09-30T01:57:12.950Z,94.50
2018-09-30T01:59:41.876Z,94.60
2018-09-30T02:02:10.882Z,94.60
2018-09-30T02:04:39.789Z,94.70
2018-09-30T02:07:08.755Z,94.70
2018-09-30T02:09:37.680Z,94.70
2018-09-30T02:12:06.715Z,94.70
2018-09-30T02:14:35.569Z,94.70
2018-09-30T02:17:04.508Z,95.00
2018-09-30T02:19:33.504Z,94.60
2018-09-30T02:22:02.364Z,94.60
2018-09-30T02:24:31.307Z,94.70
2018-09-30T02:27:00.197Z,94.70
2018-09-30T02:29:29.158Z,94.80
2018-09-30T02:31:58.154Z,94.90
2018-09-30T02:34:27.131Z,94.80
2018-09-30T02:36:56.114Z,94.50
2018-09-30T02:39:25.084Z,94.70
2018-09-30T02:41:54.263Z,94.80
2018-09-30T02:44:23.349Z,94.90
2018-09-30T02:46:52.381Z,94.90
2018-09-30T02:49:21.350Z,95.10
2018-09-30T02:51:50.338Z,94.90
2018-09-30T02:54:19.266Z,95.00
2018-09-30T02:56:48.248Z,95.10
2018-09-30T02:59:17.238Z,95.20
2018-09-30T03:01:46.247Z,95.20
2018-09-30T03:04:15.197Z,95.20
2018-09-30T03:06:49.457Z,95.10
2018-09-30T03:09:19.119Z,95.20
2018-09-30T03:11:48.102Z,95.20
2018-09-30T03:14:17.438Z,95.30
2018-09-30T03:16:47.057Z,95.30
2018-09-30T03:19:16.353Z,95.30
2018-09-30T03:21:45.332Z,95.30
2018-09-30T03:24:14.237Z,95.40
2018-09-30T03:26:43.257Z,95.40
2018-09-30T03:29:12.161Z,95.40
2018-09-30T03:31:41.234Z,95.30
2018-09-30T03:34:10.128Z,95.40
2018-09-30T03:36:39.124Z,95.40
2018-09-30T03:39:09.110Z,95.40
2018-09-30T03:41:38.128Z,95.30
2018-09-30T03:44:07.030Z,95.40
2018-09-30T03:46:36.017Z,95.20
2018-09-30T03:49:05.006Z,95.30
2018-09-30T03:51:33.937Z,95.30
2018-09-30T03:54:02.839Z,95.30
2018-09-30T03:56:31.836Z,95.30
2018-09-30T03:59:00.681Z,95.20
2018-09-30T04:01:29.684Z,95.30
2018-09-30T04:03:58.569Z,95.30
2018-09-30T04:06:28.000Z,95.30
2018-09-30T04:08:56.888Z,95.30
2018-09-30T04:11:25.786Z,95.20
2018-09-30T04:13:54.857Z,95.20
2018-09-30T04:16:23.753Z,95.20
2018-09-30T04:18:52.669Z,95.20
2018-09-30T04:21:21.559Z,95.20
2018-09-30T04:23:54.643Z,95.20
2018-09-30T04:26:23.584Z,95.20
2018-09-30T04:28:52.571Z,95.20
2018-09-30T04:31:21.590Z,95.30
2018-09-30T04:33:50.510Z,95.30
2018-09-30T04:36:19.458Z,95.20
2018-09-30T04:38:48.309Z,95.20
2018-09-30T04:41:18.505Z,95.20
2018-09-30T04:43:47.473Z,95.20
2018-09-30T04:46:16.593Z,95.20
2018-09-30T04:48:45.526Z,95.20
2018-09-30T04:51:14.494Z,95.10
2018-09-30T04:53:43.482Z,95.20
2018-09-30T04:56:12.443Z,95.30
2018-09-30T04:58:41.361Z,95.40
2018-09-30T05:01:10.220Z,95.40
2018-09-30T05:03:39.277Z,95.40
2018-09-30T05:06:08.281Z,95.50
2018-09-30T05:08:37.262Z,95.40
2018-09-30T05:11:06.243Z,95.40
2018-09-30T05:13:35.217Z,95.40
2018-09-30T05:16:04.299Z,95.50
2018-09-30T05:18:33.247Z,95.40
2018-09-30T05:21:02.386Z,95.50
2018-09-30T05:23:31.335Z,95.40
2018-09-30T05:26:00.281Z,95.50
2018-09-30T05:28:29.282Z,95.50
2018-09-30T05:30:58.279Z,95.50
2018-09-30T05:33:27.134Z,95.50
2018-09-30T05:35:56.026Z,95.60
2018-09-30T05:38:25.056Z,95.70
2018-09-30T05:40:54.058Z,95.70
2018-09-30T05:43:22.972Z,95.80
2018-09-30T05:45:51.949Z,95.80
2018-09-30T05:48:20.862Z,95.80
2018-09-30T05:50:49.942Z,96.10
2018-09-30T05:53:18.915Z,95.90
2018-09-30T05:55:47.928Z,96.00
2018-09-30T05:58:16.902Z,96.00
2018-09-30T06:00:45.778Z,95.90
2018-09-30T06:03:14.817Z,96.00
2018-09-30T06:05:43.809Z,96.20
2018-09-30T06:08:12.737Z,96.20
2018-09-30T06:10:41.803Z,96.30
2018-09-30T06:13:10.716Z,96.70
2018-09-30T06:15:39.650Z,96.60
2018-09-30T06:18:08.609Z,96.60
2018-09-30T06:20:37.564Z,96.60
2018-09-30T06:23:06.538Z,96.60
2018-09-30T06:25:35.544Z,96.50
2018-09-30T06:28:04.582Z,96.50
2018-09-30T06:30:33.585Z,96.50
2018-09-30T06:33:02.591Z,96.60
2018-09-30T06:35:31.535Z,96.60
2018-09-30T06:38:00.496Z,96.50
2018-09-30T06:40:29.756Z,96.30
2018-09-30T06:42:59.006Z,96.10
2018-09-30T06:45:27.931Z,96.30
2018-09-30T06:47:56.868Z,95.80
2018-09-30T06:50:25.839Z,93.10
2018-09-30T06:52:54.838Z,94.00
2018-09-30T06:55:23.895Z,94.10
2018-09-30T06:57:52.910Z,93.50
2018-09-30T07:00:21.901Z,93.60
2018-09-30T07:02:50.782Z,93.80
2018-09-30T07:05:19.732Z,93.50
2018-09-30T07:07:48.618Z,92.10
2018-09-30T07:10:17.549Z,92.40
2018-09-30T07:12:46.485Z,90.30
2018-09-30T07:15:15.438Z,91.10
2018-09-30T07:17:44.402Z,91.80
2018-09-30T07:20:13.371Z,91.30
2018-09-30T07:22:42.358Z,90.90
2018-09-30T07:25:11.354Z,90.10
2018-09-30T07:27:40.179Z,90.10
2018-09-30T07:30:09.113Z,88.80
2018-09-30T07:32:38.014Z,89.60
2018-09-30T07:35:07.029Z,89.20
2018-09-30T07:37:35.955Z,85.70
2018-09-30T07:40:05.042Z,85.50
2018-09-30T07:42:34.022Z,84.20
2018-09-30T07:45:02.964Z,82.80
2018-09-30T07:47:31.990Z,84.80
2018-09-30T07:50:00.846Z,84.70
2018-09-30T07:52:29.707Z,83.10
2018-09-30T07:54:58.716Z,83.10
2018-09-30T07:57:27.643Z,77.20
2018-09-30T07:59:57.017Z,79.10
2018-09-30T08:02:27.744Z,77.90
2018-09-30T08:04:56.829Z,75.00
2018-09-30T08:07:25.784Z,71.00
2018-09-30T08:09:54.684Z,73.90
2018-09-30T08:12:23.541Z,72.80
2018-09-30T08:14:52.508Z,72.20
2018-09-30T08:17:21.571Z,62.70
2018-09-30T08:19:50.524Z,65.20
2018-09-30T08:22:19.489Z,65.20
2018-09-30T08:24:48.528Z,62.30
2018-09-30T08:27:17.442Z,61.50
2018-09-30T08:29:46.386Z,60.90
2018-09-30T08:32:15.343Z,59.00
2018-09-30T08:34:45.376Z,59.10
2018-09-30T08:37:18.511Z,58.60
2018-09-30T08:39:47.576Z,54.80
2018-09-30T08:42:16.708Z,53.20
2018-09-30T08:44:45.756Z,53.00
2018-09-30T08:47:15.057Z,54.20
2018-09-30T08:49:43.971Z,55.00
2018-09-30T08:52:12.920Z,54.90
2018-09-30T08:54:41.871Z,56.40
2018-09-30T08:57:10.817Z,56.00
2018-09-30T08:59:39.843Z,56.00
2018-09-30T09:02:08.775Z,50.30
2018-09-30T09:04:37.789Z,51.50
2018-09-30T09:07:06.799Z,49.10
2018-09-30T09:09:35.751Z,48.60
2018-09-30T09:12:04.773Z,50.70
2018-09-30T09:14:33.727Z,48.30
2018-09-30T09:17:02.747Z,48.20
2018-09-30T09:19:31.719Z,47.00
2018-09-30T09:22:00.736Z,48.50
2018-09-30T09:24:29.719Z,48.70
2018-09-30T09:26:58.658Z,48.20
2018-09-30T09:29:27.614Z,48.50
2018-09-30T09:31:56.561Z,47.80
2018-09-30T09:34:25.541Z,45.30
2018-09-30T09:36:54.512Z,46.30
2018-09-30T09:39:23.472Z,46.90
2018-09-30T09:41:52.298Z,46.30
2018-09-30T09:44:21.273Z,46.20
2018-09-30T09:46:50.275Z,43.90
2018-09-30T09:49:19.106Z,43.70
2018-09-30T09:51:48.011Z,44.10
2018-09-30T09:54:16.894Z,44.60
2018-09-30T09:56:45.879Z,42.50
2018-09-30T09:59:14.896Z,44.20
2018-09-30T10:01:43.698Z,44.30
2018-09-30T10:04:15.474Z,45.00
2018-09-30T10:06:44.419Z,44.80
2018-09-30T10:09:13.342Z,42.30
2018-09-30T10:11:42.278Z,43.40
2018-09-30T10:14:11.162Z,41.80
2018-09-30T10:16:40.061Z,40.50
2018-09-30T10:19:09.041Z,40.40
2018-09-30T10:21:37.975Z,39.80
2018-09-30T10:24:07.071Z,40.90
2018-09-30T10:26:36.049Z,39.50
2018-09-30T10:29:04.974Z,40.30
2018-09-30T10:31:33.870Z,41.20
2018-09-30T10:34:02.903Z,41.30
2018-09-30T10:36:32.101Z,39.60
2018-09-30T10:39:01.136Z,39.80
2018-09-30T10:41:29.977Z,40.70
2018-09-30T10:43:58.895Z,39.60
2018-09-30T10:46:27.840Z,41.40
2018-09-30T10:48:56.774Z,39.80
2018-09-30T10:51:25.769Z,39.50
2018-09-30T10:53:54.671Z,38.10
2018-09-30T10:56:23.563Z,38.00
2018-09-30T10:58:52.438Z,38.30
2018-09-30T11:01:21.348Z,37.80
2018-09-30T11:03:50.162Z,38.30
2018-09-30T11:06:19.065Z,38.60
2018-09-30T11:08:47.964Z,37.70
2018-09-30T11:11:16.951Z,37.90
2018-09-30T11:13:45.919Z,37.40
2018-09-30T11:16:15.007Z,36.90
2018-09-30T11:18:43.925Z,38.50
2018-09-30T11:21:12.835Z,36.40
2018-09-30T11:23:41.806Z,37.30
2018-09-30T11:26:10.761Z,36.70
2018-09-30T11:28:39.683Z,39.10
2018-09-30T11:31:08.725Z,37.30
2018-09-30T11:33:37.758Z,37.40
2018-09-30T11:36:06.902Z,35.60
2018-09-30T11:38:35.943Z,36.40
2018-09-30T11:41:04.998Z,37.40
2018-09-30T11:43:34.014Z,37.10
2018-09-30T11:46:03.186Z,36.30
2018-09-30T11:48:32.261Z,36.60
2018-09-30T11:51:01.260Z,36.80
2018-09-30T11:53:30.319Z,35.40
2018-09-30T11:55:59.329Z,35.20
2018-09-30T11:58:28.403Z,37.70
2018-09-30T12:00:57.319Z,34.50
2018-09-30T12:03:26.202Z,36.90
2018-09-30T12:05:55.241Z,34.90
2018-09-30T12:08:24.340Z,35.90
2018-09-30T12:10:53.289Z,36.10
2018-09-30T12:13:22.217Z,35.40
2018-09-30T12:15:51.241Z,34.40
2018-09-30T12:18:20.357Z,33.50
2018-09-30T12:20:49.545Z,33.10
2018-09-30T12:23:18.497Z,33.10
2018-09-30T12:25:47.603Z,33.60
2018-09-30T12:28:16.514Z,34.30
2018-09-30T12:30:45.448Z,35.30
2018-09-30T12:33:14.522Z,33.80
2018-09-30T12:35:43.470Z,33.60
2018-09-30T12:38:12.519Z,33.30
2018-09-30T12:40:41.453Z,34.30
2018-09-30T12:43:10.402Z,34.50
2018-09-30T12:45:39.442Z,33.20
2018-09-30T12:48:08.419Z,33.70
2018-09-30T12:50:37.438Z,31.50
2018-09-30T12:53:06.652Z,30.60
2018-09-30T12:55:35.628Z,30.40
2018-09-30T12:58:04.668Z,30.30
2018-09-30T13:00:33.761Z,29.80
2018-09-30T13:03:02.697Z,29.40
2018-09-30T13:05:31.698Z,29.10
2018-09-30T13:08:00.716Z,28.50
2018-09-30T13:10:29.766Z,28.00
2018-09-30T13:12:59.977Z,27.60
2018-09-30T13:15:29.858Z,27.70
2018-09-30T13:17:58.786Z,28.10
2018-09-30T13:20:27.814Z,27.80
2018-09-30T13:22:56.839Z,27.40
2018-09-30T13:25:25.797Z,26.90
2018-09-30T13:27:54.947Z,27.30
2018-09-30T13:30:23.981Z,27.20
2018-09-30T13:32:52.965Z,27.10
2018-09-30T13:35:21.981Z,26.70
2018-09-30T13:37:51.027Z,26.00
2018-09-30T13:40:20.022Z,25.20
2018-09-30T13:42:48.988Z,24.90
2018-09-30T13:45:17.954Z,25.30
2018-09-30T13:47:46.860Z,24.70
2018-09-30T13:50:15.823Z,24.90
2018-09-30T13:52:44.865Z,25.60
2018-09-30T13:55:20.558Z,27.00
2018-09-30T13:57:49.602Z,27.00
2018-09-30T14:00:18.606Z,28.40
2018-09-30T14:02:47.655Z,28.60
2018-09-30T14:05:16.610Z,29.50
2018-09-30T14:07:45.625Z,31.50
2018-09-30T14:10:14.572Z,34.00
2018-09-30T14:12:43.577Z,34.30
2018-09-30T14:15:12.644Z,34.70
2018-09-30T14:17:41.662Z,35.40
2018-09-30T14:20:10.629Z,36.50
2018-09-30T14:22:39.714Z,37.10
2018-09-30T14:25:08.776Z,38.40
2018-09-30T14:27:37.905Z,38.50
2018-09-30T14:30:06.897Z,38.60
2018-09-30T14:32:36.004Z,38.30
2018-09-30T14:35:05.194Z,38.80
2018-09-30T14:37:34.162Z,39.60
2018-09-30T14:40:03.162Z,40.00
2018-09-30T14:42:33.067Z,40.80
2018-09-30T14:45:02.120Z,41.80
2018-09-30T14:47:31.162Z,41.00
2018-09-30T14:50:00.100Z,41.30
2018-09-30T14:52:29.155Z,40.90
2018-09-30T14:54:58.063Z,41.30
2018-09-30T14:57:27.498Z,42.70
2018-09-30T14:59:56.609Z,42.30
2018-09-30T15:02:25.609Z,42.00
2018-09-30T15:04:54.604Z,42.70
2018-09-30T15:07:23.923Z,43.80
2018-09-30T15:09:52.816Z,42.60
2018-09-30T15:12:21.727Z,42.30
2018-09-30T15:14:50.645Z,43.50
2018-09-30T15:17:19.608Z,43.30
2018-09-30T15:19:48.499Z,43.70
2018-09-30T15:22:17.505Z,43.30
2018-09-30T15:24:46.536Z,44.90
2018-09-30T15:27:19.466Z,44.60
2018-09-30T15:29:48.473Z,45.30
2018-09-30T15:32:17.398Z,45.00
2018-09-30T15:34:46.355Z,45.30
2018-09-30T15:37:15.304Z,46.00
2018-09-30T15:39:44.300Z,47.00
2018-09-30T15:42:13.331Z,46.00
2018-09-30T15:44:42.339Z,47.40
2018-09-30T15:47:11.341Z,48.50
2018-09-30T15:49:40.287Z,49.20
2018-09-30T15:52:09.454Z,49.90
2018-09-30T15:54:38.497Z,50.80
2018-09-30T15:57:07.525Z,51.40
2018-09-30T15:59:36.496Z,52.40
2018-09-30T16:02:05.388Z,52.80
2018-09-30T16:04:34.429Z,53.50
2018-09-30T16:07:03.321Z,53.40
2018-09-30T16:09:32.300Z,54.20
2018-09-30T16:12:01.287Z,54.30
2018-09-30T16:14:30.260Z,54.50
2018-09-30T16:16:59.249Z,55.20
2018-09-30T16:19:28.147Z,55.50
2018-09-30T16:21:57.092Z,56.00
2018-09-30T16:24:26.062Z,56.60
2018-09-30T16:26:55.006Z,56.40
2018-09-30T16:29:23.982Z,57.50
2018-09-30T16:31:53.081Z,58.20
2018-09-30T16:34:22.101Z,57.90
2018-09-30T16:36:51.188Z,58.60
2018-09-30T16:39:20.074Z,58.80
2018-09-30T16:41:49.071Z,59.50
2018-09-30T16:44:18.006Z,59.30
2018-09-30T16:46:46.962Z,59.80
2018-09-30T16:49:15.880Z,60.10
2018-09-30T16:51:44.897Z,61.10
2018-09-30T16:54:13.892Z,61.90
2018-09-30T16:56:42.902Z,63.30
2018-09-30T16:59:11.845Z,63.60
2018-09-30T17:01:40.836Z,64.10
2018-09-30T17:04:09.773Z,65.30
2018-09-30T17:06:38.787Z,65.30
2018-09-30T17:09:08.063Z,65.90
2018-09-30T17:11:37.143Z,66.60
2018-09-30T17:14:06.151Z,67.80
2018-09-30T17:16:35.182Z,69.10
2018-09-30T17:19:04.257Z,69.00
2018-09-30T17:21:33.207Z,70.60
2018-09-30T17:24:02.358Z,71.40
2018-09-30T17:26:31.340Z,67.90
2018-09-30T17:29:00.346Z,70.20
2018-09-30T17:31:29.364Z,71.00
2018-09-30T17:33:58.408Z,70.40
2018-09-30T17:36:27.332Z,70.90
2018-09-30T17:38:56.380Z,71.60
2018-09-30T17:41:25.313Z,70.80
2018-09-30T17:43:54.484Z,72.00
2018-09-30T17:46:23.833Z,74.10
2018-09-30T17:48:53.259Z,72.60
2018-09-30T17:51:22.749Z,74.70
2018-09-30T17:53:52.126Z,75.00
2018-09-30T17:56:21.892Z,74.90
2018-09-30T17:58:51.062Z,74.50
2018-09-30T18:01:19.978Z,75.10
2018-09-30T18:03:49.234Z,74.10
2018-09-30T18:06:18.479Z,75.30
2018-09-30T18:08:47.840Z,74.10
2018-09-30T18:11:17.347Z,75.00
2018-09-30T18:13:46.808Z,75.80
2018-09-30T18:16:16.385Z,74.00
2018-09-30T18:18:45.913Z,75.00
2018-09-30T18:21:15.509Z,75.40
2018-09-30T18:23:44.872Z,74.20
2018-09-30T18:26:14.016Z,74.80
2018-09-30T18:28:43.179Z,75.40
2018-09-30T18:31:12.216Z,75.40
2018-09-30T18:33:41.404Z,76.40
2018-09-30T18:36:10.632Z,76.20
2018-09-30T18:38:40.126Z,76.90
2018-09-30T18:41:09.525Z,77.20
2018-09-30T18:43:39.033Z,78.20
2018-09-30T18:46:08.573Z,78.10
2018-09-30T18:48:37.972Z,78.30
2018-09-30T18:51:07.449Z,78.90
2018-09-30T18:53:36.907Z,79.50
2018-09-30T18:56:06.479Z,80.30
2018-09-30T18:58:35.589Z,79.90
2018-09-30T19:01:04.801Z,80.40
2018-09-30T19:03:33.870Z,80.40
2018-09-30T19:06:02.845Z,81.40
2018-09-30T19:08:31.803Z,81.70
2018-09-30T19:11:00.861Z,81.30
2018-09-30T19:13:29.840Z,82.00
2018-09-30T19:15:59.009Z,82.30
2018-09-30T19:18:27.973Z,82.00
2018-09-30T19:20:56.905Z,82.30
2018-09-30T19:23:26.265Z,82.60
2018-09-30T19:25:55.634Z,82.80
2018-09-30T19:28:24.821Z,83.60
2018-09-30T19:30:53.956Z,84.50
2018-09-30T19:33:23.303Z,83.70
2018-09-30T19:35:52.762Z,84.80
2018-09-30T19:38:21.999Z,84.50
2018-09-30T19:40:50.985Z,84.50
2018-09-30T19:43:19.972Z,84.80
2018-09-30T19:45:48.942Z,85.50
2018-09-30T19:48:17.888Z,84.60
2018-09-30T19:50:46.882Z,84.80
2018-09-30T19:53:15.882Z,86.20
2018-09-30T19:55:45.117Z,85.80
2018-09-30T19:58:14.442Z,85.80
2018-09-30T20:00:43.698Z,86.00
2018-09-30T20:03:12.950Z,86.60
2018-09-30T20:05:42.159Z,86.70
2018-09-30T20:08:11.145Z,86.60
2018-09-30T20:10:40.137Z,86.70
2018-09-30T20:13:09.161Z,87.10
2018-09-30T20:15:38.175Z,87.30
2018-09-30T20:18:07.182Z,87.00
2018-09-30T20:20:36.383Z,87.40
2018-09-30T20:23:05.444Z,87.50
2018-09-30T20:25:34.602Z,88.00
2018-09-30T20:28:03.658Z,88.10
2018-09-30T20:30:32.834Z,88.20
2018-09-30T20:33:01.893Z,88.30
2018-09-30T20:35:31.037Z,88.80
2018-09-30T20:38:00.035Z,89.00
2018-09-30T20:40:29.143Z,88.90
2018-09-30T20:42:58.179Z,89.00
2018-09-30T20:45:27.116Z,89.00
2018-09-30T20:47:56.077Z,89.30
2018-09-30T20:50:25.013Z,89.50
2018-09-30T20:52:53.890Z,89.70
2018-09-30T20:55:22.845Z,90.00
2018-09-30T20:57:51.773Z,90.10
2018-09-30T21:00:20.698Z,90.20
2018-09-30T21:02:49.723Z,90.40
2018-09-30T21:05:29.583Z,90.50
2018-09-30T21:07:58.536Z,90.70
2018-09-30T21:10:27.497Z,90.70
2018-09-30T21:12:56.485Z,90.80
2018-09-30T21:15:25.403Z,90.90
2018-09-30T21:17:54.363Z,91.00
2018-09-30T21:20:23.323Z,90.90
2018-09-30T21:22:52.229Z,91.00
2018-09-30T21:25:21.292Z,91.00
2018-09-30T21:27:50.172Z,91.20
2018-09-30T21:30:19.195Z,91.20
2018-09-30T21:32:48.177Z,91.20
2018-09-30T21:35:17.102Z,91.40
2018-09-30T21:37:46.036Z,91.60
2018-09-30T21:40:15.004Z,91.60
2018-09-30T21:42:43.984Z,91.60
2018-09-30T21:45:12.960Z,91.70
2018-09-30T21:47:41.831Z,91.80
2018-09-30T21:50:10.828Z,91.90
2018-09-30T21:52:39.782Z,92.00
2018-09-30T21:55:08.785Z,92.10
2018-09-30T21:57:37.683Z,92.20
2018-09-30T22:00:07.654Z,92.10
2018-09-30T22:02:36.622Z,92.20
2018-09-30T22:05:05.622Z,92.20
2018-09-30T22:07:34.587Z,92.30
2018-09-30T22:10:03.512Z,92.40
2018-09-30T22:12:32.457Z,92.40
2018-09-30T22:15:01.443Z,92.50
2018-09-30T22:17:30.438Z,92.50
2018-09-30T22:19:59.369Z,92.90
2018-09-30T22:22:28.357Z,92.50
2018-09-30T22:24:57.203Z,92.50
2018-09-30T22:27:26.191Z,92.70
2018-09-30T22:29:55.104Z,92.70
2018-09-30T22:32:24.199Z,92.80
2018-09-30T22:34:53.050Z,92.80
2018-09-30T22:37:22.316Z,92.90
2018-09-30T22:39:51.262Z,93.00
2018-09-30T22:42:20.179Z,93.00
2018-09-30T22:44:49.157Z,93.10
2018-09-30T22:47:18.263Z,93.10
2018-09-30T22:49:47.243Z,93.20
2018-09-30T22:52:16.179Z,93.20
2018-09-30T22:54:45.143Z,93.30
2018-09-30T22:57:14.038Z,93.30
2018-09-30T22:59:42.963Z,93.40
2018-09-30T23:02:11.973Z,93.40
2018-09-30T23:04:41.008Z,93.30
2018-09-30T23:07:10.002Z,93.50
2018-09-30T23:09:38.962Z,93.60
2018-09-30T23:12:07.904Z,93.50
2018-09-30T23:14:36.877Z,93.60
2018-09-30T23:17:06.423Z,93.50
2018-09-30T23:19:35.417Z,93.60
2018-09-30T23:22:04.397Z,93.60
2018-09-30T23:24:33.343Z,93.60
2018-09-30T23:27:02.603Z,93.60
2018-09-30T23:29:31.564Z,93.60
2018-09-30T23:32:00.460Z,93.60
2018-09-30T23:34:29.503Z,93.60
2018-09-30T23:36:58.378Z,93.70
2018-09-30T23:39:27.324Z,93.70
2018-09-30T23:41:56.292Z,93.70
2018-09-30T23:44:25.257Z,93.70
2018-09-30T23:46:54.117Z,93.80
2018-09-30T23:49:23.034Z,93.80
2018-09-30T23:51:51.914Z,93.90
2018-09-30T23:54:20.867Z,94.00
2018-09-30T23:56:49.814Z,94.00
2018-09-30T23:59:18.777Z,94.10
